Share

Ashton, NE

12:28 AM CDT on April 25, 2014 (GMT -0500)
Central (KNELOUPC2) Elev 2090 ft | 41.28 °N, 98.97 °W | Change Station

Current weather conditions updated 8 minutes ago

Clear
Clear
41.9 °F
Feels Like 42 °F
N
0.0
Wind Variable Wind from West
Sunrise 6:40 AM
Sunset 8:26 PM
Moon Waning Crescent

Today is forecast to be Warmer than yesterday.

Pressure 29.83 in
Visibility 10.0 miles
Clouds Clear
Windchill 42 °F
Dew Point 32 °F
Humidity 69%
Rainfall 0.00 in
Snow Depth Not available.
UV 0 out of 16
Pollen 9.80 out of 12
Air Quality Not available.
Flu Activity Sporadic
METAR KODX 250453Z AUTO 22004KT 10SM CLR 04/M01 A2982 RMK AO2 SLP102 T00391011

More Conditions Fewer Conditions

Pressure 29.83 in
Visibility 10.0 miles
Clouds Clear
Windchill 42 °F
Dew Point 32 °F
Humidity 69%
Rainfall 0.00 in
Snow Depth Not available.
UV 0 out of 16
Pollen 9.80 out of 12
Air Quality Not available.
Flu Activity Sporadic
METAR KODX 250453Z AUTO 22004KT 10SM CLR 04/M01 A2982 RMK AO2 SLP102 T00391011

More Conditions Fewer Conditions

10-Day Weather Forecast

Almanac

Astronomy

Apr. 25, 2014 Rise Set
Actual Time 6:40 AM CDT 8:26 PM CDT
Civil Twilight 6:11 AM CDT 8:55 PM CDT
Nautical Twilight 5:35 AM CDT 9:31 PM CDT
Astronomical Twilight 4:57 AM CDT 10:10 PM CDT
Moon 4:32 AM CDT 4:48 PM CDT
Length of Visible Light 14h 44m
Length of Day
13h 45m
Tomorrow will be 2m 28s longer.
Waning Crescent, 19% of the Moon is Illuminated
Today
Waning Crescent
Apr 29
New
May 6
First Quarter
May 14
Full
May 21
Last Quarter

Today's Extremes

State Highs State Lows

Community

  • Deer in evening light
    Deer in evening light
  • Critter
    Critter
  • Jone Runs Falls
    Jone Runs Falls
  • Easter in Shenandoah National Park
    Easter in Shenandoah National Park
  • Sunset at Apalachicola Bay, Florida
    Sunset at Apalachicola Bay, Florida

WunderPhotos

Upload Photos

1,704,861 photos uploaded!

WunderBlogs® & News

Nearby

Snow Depth

Station Depth Elevation
No new snow has been reported.

Coastal Water Temperatures

Place Temperature
No Stations Reporting

Earthquake Activity

City Distance Mag. Time & Date
No recent earthquake activity has been reported nearby.
Minimum magnitude displayed is 2.5.

Nearby Weather Stations

Station Location Temp. Windchill Dew Point Humidity Wind Precip. Elev Updated Type
Central, Loup City, NE 41.9 °F 42 °F 32 °F 69% West  at  0.0 mph - / hr 2090 ft 12:19 AM CDT Normal

Show More Stations Show Fewer Stations

What do you think?

We're not finished. Please let us know what you like, what you don't like, and what you are still missing.